Airfield :
LOGIN :

Register | Disclaimer

   EN    FR    IT 

 










Legend :    VFR   Marginal VFR   IFR   Intensive IFR   Very Intensive IFR
Visi :
Ceiling :
>= 8 km
>= 3000ft
5 to 8 km
1000 to 3000 ft
1500m to 5 km
500 to 1000 ft
800 to 1500m
200 to 500 ft
< 800m
< 200 ft
Symbols :   Thunderstorms  Fog  Heavy snow  Heavy precipitations  Wind > 20 kt
SIGMETs :     Misc.  Thunderstorms  Icing  Turbulence  Mountain Waves  Volcanic Ashes







- Airport Elevation : 502 ft
- IATA code : ORK


EICK - Cork

CURRENT METAR :
  • 230630Z 10013KT 9999 FEW016 SCT060 BKN080 11/08 Q0994 NOSIG

EXPIRED METARs :
  • 230600Z 08013KT 9999 FEW016 BKN080 BKN120 11/08 Q0994 NOSIG
  • 230530Z 08013KT 9999 FEW015 SCT050 BKN070 11/08 Q0994 NOSIG
  • 230500Z 08012KT 9999 FEW015 SCT050 BKN080 11/09 Q0994 NOSIG
  • 230430Z 07011KT 9999 FEW015 BKN060 10/09 Q0994 NOSIG
  • 230400Z 08010KT 9999 FEW012 BKN060 10/09 Q0995 NOSIG

TAF TAF EICK
Valid from the 23 at 06:00 until the 24 at 06:00 UTC


230500Z 2306/2406 08012KT 9999 FEW012 BKN050
BECMG 2309/2312 12012KT
BECMG 2312/2315 15010KT
BECMG 2318/2321 08008KT
BECMG 2322/2401 4000 -RA BKN008
TEMPO 2401/2406 2000 RA BKN003 SCT040CB
PROB40
TEMPO 2402/2406 0400 FG BKN001
BECMG 2403/2406 13008KT
No reported NOTAMs for that airfield.



MET'MAP, your aeronautical weather chart ! - Copyright ORBIFLY December 2007 - Disclaimer

ORBIFLY MET'MAP TEAM :

Programming & Development : Alexandra Zaïnal
Concept & Development : Baudouin d'Aumeries
Co-Development & Prog : Marc-Olivier Méhu
Technical & hardware support : Manuel Goepfert

Contact : metmap@orbifly.com




SOURCES & CREDITS :

   NOAA